createdAt,value
2023-01-28T00:01:19.526Z,13.70
2023-01-28T00:03:52.424Z,13.50
2023-01-28T00:06:23.111Z,12.30
2023-01-28T00:08:54.881Z,12.90
2023-01-28T00:11:25.853Z,12.90
2023-01-28T00:13:56.655Z,12.60
2023-01-28T00:16:28.044Z,12.40
2023-01-28T00:18:58.812Z,13.50
2023-01-28T00:21:29.255Z,12.30
2023-01-28T00:23:59.932Z,11.20
2023-01-28T00:26:30.540Z,11.20
2023-01-28T00:29:01.066Z,11.70
2023-01-28T00:31:31.614Z,10.00
2023-01-28T00:36:33.854Z,17.20
2023-01-28T00:39:04.511Z,13.20
2023-01-28T00:41:36.244Z,12.00
2023-01-28T00:44:09.738Z,9.30
2023-01-28T00:46:42.146Z,11.20
2023-01-28T00:49:13.073Z,10.60
2023-01-28T00:51:44.770Z,10.60
2023-01-28T00:54:16.456Z,10.80
2023-01-28T00:56:47.133Z,11.30
2023-01-28T00:59:17.659Z,11.60
2023-01-28T01:01:48.132Z,13.90
2023-01-28T01:04:26.738Z,12.60
2023-01-28T01:06:57.369Z,13.00
2023-01-28T01:09:29.670Z,11.50
2023-01-28T01:12:00.555Z,11.10
2023-01-28T01:14:31.161Z,17.20
2023-01-28T01:17:01.641Z,12.80
2023-01-28T01:19:32.651Z,12.10
2023-01-28T01:22:03.278Z,12.40
2023-01-28T01:24:34.898Z,11.30
2023-01-28T01:27:06.166Z,12.20
2023-01-28T01:29:36.832Z,10.70
2023-01-28T01:32:07.914Z,12.00
2023-01-28T01:34:38.462Z,10.90
2023-01-28T01:37:10.558Z,13.00
2023-01-28T01:39:41.248Z,12.10
2023-01-28T01:42:14.796Z,10.40
2023-01-28T01:44:59.347Z,11.70
2023-01-28T01:47:36.008Z,11.80
2023-01-28T01:50:13.729Z,16.40
2023-01-28T01:52:46.083Z,12.30
2023-01-28T01:55:20.489Z,11.00
2023-01-28T01:57:53.400Z,10.80
2023-01-28T02:00:24.648Z,10.40
2023-01-28T02:02:56.844Z,11.60
2023-01-28T02:05:27.658Z,9.50
2023-01-28T02:08:21.118Z,10.40
2023-01-28T02:10:56.451Z,10.90
2023-01-28T02:13:30.668Z,11.60
2023-01-28T02:16:05.160Z,10.30
2023-01-28T02:18:36.342Z,10.80
2023-01-28T02:21:46.645Z,10.10
2023-01-28T02:24:37.494Z,10.60
2023-01-28T02:27:29.284Z,10.70
2023-01-28T02:30:07.368Z,10.70
2023-01-28T02:32:44.939Z,11.20
2023-01-28T02:35:23.449Z,10.40
2023-01-28T02:37:59.627Z,10.30
2023-01-28T02:40:55.549Z,17.90
2023-01-28T02:43:34.524Z,11.80
2023-01-28T02:46:34.749Z,12.00
2023-01-28T02:49:09.724Z,10.10
2023-01-28T02:52:11.892Z,10.30
2023-01-28T02:54:56.150Z,10.10
2023-01-28T02:57:38.657Z,8.70
2023-01-28T03:00:16.410Z,9.80
2023-01-28T03:02:54.559Z,9.80
2023-01-28T03:05:29.326Z,10.30
2023-01-28T03:08:00.782Z,11.00
2023-01-28T03:10:31.588Z,10.80
2023-01-28T03:13:20.239Z,11.10
2023-01-28T03:16:08.948Z,11.70
2023-01-28T03:19:04.009Z,10.70
2023-01-28T03:21:57.580Z,11.70
2023-01-28T03:24:50.536Z,11.80
2023-01-28T03:27:45.635Z,11.50
2023-01-28T03:30:36.623Z,10.80
2023-01-28T03:33:30.077Z,9.70
2023-01-28T03:36:18.449Z,12.50
2023-01-28T03:38:49.620Z,13.20
2023-01-28T03:41:25.252Z,13.90
2023-01-28T03:43:57.205Z,12.10
2023-01-28T03:46:27.700Z,12.90
2023-01-28T03:48:58.991Z,11.40
2023-01-28T03:51:29.985Z,12.50
2023-01-28T03:54:00.461Z,11.50
2023-01-28T03:56:37.531Z,12.20
2023-01-28T03:59:08.587Z,11.70
2023-01-28T04:04:23.771Z,12.80
2023-01-28T04:09:27.582Z,10.90
2023-01-28T04:12:27.275Z,11.70
2023-01-28T04:14:58.272Z,11.90
2023-01-28T04:17:31.545Z,11.20
2023-01-28T04:20:02.126Z,12.20
2023-01-28T04:22:33.292Z,11.00
2023-01-28T04:25:03.864Z,11.30
2023-01-28T04:27:34.381Z,12.10
2023-01-28T04:30:15.333Z,13.00
2023-01-28T04:32:52.316Z,13.30
2023-01-28T04:35:39.646Z,11.50
2023-01-28T04:38:30.331Z,10.70
2023-01-28T04:41:21.792Z,10.60
2023-01-28T04:43:52.260Z,10.80
2023-01-28T04:46:34.523Z,12.10
2023-01-28T04:49:28.097Z,12.90
2023-01-28T04:52:25.515Z,12.30
2023-01-28T04:55:12.207Z,12.20
2023-01-28T04:57:42.987Z,11.40
2023-01-28T05:00:15.035Z,11.50
2023-01-28T05:02:45.613Z,11.20
2023-01-28T05:05:16.681Z,12.60
2023-01-28T05:07:59.948Z,11.70
2023-01-28T05:10:30.431Z,10.50
2023-01-28T05:13:01.464Z,12.10
2023-01-28T05:15:32.054Z,12.80
2023-01-28T05:18:02.519Z,14.30
2023-01-28T05:20:38.235Z,15.30
2023-01-28T05:23:08.708Z,14.10
2023-01-28T05:25:49.245Z,9.90
2023-01-28T05:28:19.744Z,11.20
2023-01-28T05:30:51.004Z,11.70
2023-01-28T05:33:22.184Z,11.70
2023-01-28T05:35:52.950Z,11.40
2023-01-28T05:38:24.753Z,10.80
2023-01-28T05:40:55.249Z,11.10
2023-01-28T05:43:25.948Z,10.90
2023-01-28T05:46:26.109Z,11.00
2023-01-28T05:49:26.439Z,12.20
2023-01-28T05:52:19.775Z,13.10
2023-01-28T05:54:50.545Z,11.50
2023-01-28T05:57:21.291Z,10.80
2023-01-28T05:59:51.770Z,11.30
2023-01-28T06:02:22.396Z,11.00
2023-01-28T06:04:56.401Z,10.70
2023-01-28T06:07:26.974Z,12.20
2023-01-28T06:09:57.491Z,11.60
2023-01-28T06:12:28.359Z,13.10
2023-01-28T06:15:25.130Z,13.40
2023-01-28T06:18:05.042Z,10.70
2023-01-28T06:20:38.813Z,11.10
2023-01-28T06:23:09.838Z,12.00
2023-01-28T06:25:40.506Z,11.20
2023-01-28T06:28:14.492Z,10.30
2023-01-28T06:30:45.273Z,10.80
2023-01-28T06:33:15.717Z,11.70
2023-01-28T06:35:46.176Z,10.40
2023-01-28T06:38:17.037Z,11.00
2023-01-28T06:40:51.702Z,10.40
2023-01-28T06:43:27.503Z,10.00
2023-01-28T06:45:58.492Z,10.20
2023-01-28T06:48:29.852Z,9.00
2023-01-28T06:51:00.318Z,9.70
2023-01-28T06:53:31.911Z,9.90
2023-01-28T06:56:02.314Z,10.80
2023-01-28T06:58:32.754Z,9.90
2023-01-28T07:01:03.935Z,8.70
2023-01-28T07:03:34.345Z,10.30
2023-01-28T07:06:05.226Z,10.10
2023-01-28T07:08:35.823Z,11.50
2023-01-28T07:11:06.892Z,10.40
2023-01-28T07:13:37.585Z,10.60
2023-01-28T07:16:09.481Z,11.00
2023-01-28T07:18:39.889Z,9.70
2023-01-28T07:21:10.547Z,9.50
2023-01-28T07:23:40.997Z,9.50
2023-01-28T07:26:11.567Z,9.20
2023-01-28T07:28:42.096Z,8.90
2023-01-28T07:31:12.660Z,8.70
2023-01-28T07:33:43.204Z,9.00
2023-01-28T07:36:13.683Z,10.20
2023-01-28T07:38:44.248Z,9.60
2023-01-28T07:41:14.793Z,9.10
2023-01-28T07:43:45.690Z,9.80
2023-01-28T07:46:16.173Z,9.90
2023-01-28T07:48:46.845Z,8.90
2023-01-28T07:51:17.299Z,9.50
2023-01-28T07:53:47.799Z,9.30
2023-01-28T07:56:18.229Z,9.80
2023-01-28T07:58:52.167Z,10.90
2023-01-28T08:01:22.651Z,10.60
2023-01-28T08:03:53.154Z,9.00
2023-01-28T08:06:23.649Z,9.40
2023-01-28T08:08:54.244Z,10.60
2023-01-28T08:11:24.696Z,13.50
2023-01-28T08:13:55.135Z,12.00
2023-01-28T08:16:25.554Z,11.10
2023-01-28T08:18:56.534Z,9.80
2023-01-28T08:21:27.169Z,9.40
2023-01-28T08:23:58.722Z,9.90
2023-01-28T08:26:29.361Z,10.70
2023-01-28T08:28:59.879Z,10.50
2023-01-28T08:31:30.715Z,10.40
2023-01-28T08:34:02.312Z,10.40
2023-01-28T08:36:33.054Z,10.30
2023-01-28T08:39:03.493Z,9.80
2023-01-28T08:41:34.029Z,9.00
2023-01-28T08:44:04.544Z,9.20
2023-01-28T08:46:35.059Z,10.00
2023-01-28T08:49:05.542Z,9.80
2023-01-28T08:51:36.229Z,10.30
2023-01-28T08:54:06.738Z,10.70
2023-01-28T08:56:39.135Z,10.30
2023-01-28T08:59:09.954Z,12.90
2023-01-28T09:01:40.378Z,18.40
2023-01-28T09:04:10.846Z,12.70
2023-01-28T09:06:41.365Z,12.30
2023-01-28T09:09:11.798Z,12.00
2023-01-28T09:11:42.310Z,12.20
2023-01-28T09:14:12.928Z,11.00
2023-01-28T09:16:43.339Z,11.10
2023-01-28T09:19:15.791Z,10.30
2023-01-28T09:21:46.567Z,10.60
2023-01-28T09:24:16.986Z,10.50
2023-01-28T09:26:49.393Z,11.40
2023-01-28T09:29:19.915Z,8.80
2023-01-28T09:31:50.978Z,8.80
2023-01-28T09:34:21.455Z,10.40
2023-01-28T09:36:51.973Z,11.50
2023-01-28T09:39:22.465Z,10.20
2023-01-28T09:42:05.463Z,8.50
2023-01-28T09:44:57.088Z,8.40
2023-01-28T09:47:32.068Z,8.50
2023-01-28T09:50:06.261Z,8.50
2023-01-28T09:52:42.066Z,8.80
2023-01-28T09:55:21.118Z,8.00
2023-01-28T09:57:55.479Z,9.50
2023-01-28T10:00:29.354Z,8.40
2023-01-28T10:03:26.108Z,9.20
2023-01-28T10:06:09.524Z,9.00
2023-01-28T10:08:54.390Z,7.90
2023-01-28T10:11:39.566Z,10.10
2023-01-28T10:16:48.024Z,9.80
2023-01-28T10:19:23.348Z,10.70
2023-01-28T10:22:00.145Z,9.50
2023-01-28T10:24:35.909Z,9.30
2023-01-28T10:27:13.845Z,11.30
2023-01-28T10:29:46.560Z,11.30
2023-01-28T10:32:29.068Z,8.10
2023-01-28T10:35:01.729Z,7.50
2023-01-28T10:37:35.864Z,7.70
2023-01-28T10:40:13.658Z,8.70
2023-01-28T10:42:44.891Z,8.30
2023-01-28T10:45:22.361Z,7.50
2023-01-28T10:48:01.135Z,7.40
2023-01-28T10:50:33.119Z,7.70
2023-01-28T10:53:06.655Z,8.20
2023-01-28T10:55:47.633Z,7.40
2023-01-28T10:58:21.997Z,7.70
2023-01-28T11:00:58.445Z,8.40
2023-01-28T11:03:30.903Z,7.00
2023-01-28T11:06:02.576Z,8.40
2023-01-28T11:08:44.497Z,8.00
2023-01-28T11:11:17.407Z,7.60
2023-01-28T11:13:55.711Z,7.20
2023-01-28T11:16:27.401Z,6.60
2023-01-28T11:19:06.458Z,6.50
2023-01-28T11:24:16.092Z,6.10
2023-01-28T11:26:53.236Z,5.90
2023-01-28T11:29:31.668Z,6.40
2023-01-28T11:32:03.306Z,5.90
2023-01-28T11:34:36.669Z,6.70
2023-01-28T11:37:16.477Z,7.40
2023-01-28T11:39:46.907Z,6.70
2023-01-28T11:42:20.970Z,6.40
2023-01-28T11:44:51.929Z,6.10
2023-01-28T11:47:47.686Z,5.30
2023-01-28T11:50:38.609Z,4.70
2023-01-28T11:53:29.777Z,5.00
2023-01-28T11:56:14.075Z,5.30
2023-01-28T11:58:53.631Z,4.90
2023-01-28T12:01:32.770Z,3.90
2023-01-28T12:04:25.092Z,4.20
2023-01-28T12:07:07.224Z,5.30
2023-01-28T12:09:47.067Z,4.70
2023-01-28T12:12:53.012Z,6.90
2023-01-28T12:15:57.482Z,5.40
2023-01-28T12:18:42.412Z,5.00
2023-01-28T12:21:22.153Z,5.80
2023-01-28T12:24:10.561Z,5.60
2023-01-28T12:26:51.282Z,5.20
2023-01-28T12:29:31.545Z,6.10
2023-01-28T12:32:18.887Z,5.80
2023-01-28T12:35:03.947Z,5.50
2023-01-28T12:37:46.545Z,5.60
2023-01-28T12:40:34.067Z,8.40
2023-01-28T12:43:08.006Z,4.70
2023-01-28T12:45:42.512Z,6.10
2023-01-28T12:48:17.320Z,6.20
2023-01-28T12:50:50.836Z,6.30
2023-01-28T12:53:29.482Z,5.40
2023-01-28T12:56:07.059Z,5.20
2023-01-28T12:58:46.163Z,5.70
2023-01-28T13:01:22.325Z,5.10
2023-01-28T13:03:58.593Z,5.90
2023-01-28T13:06:34.352Z,4.70
2023-01-28T13:09:13.005Z,5.10
2023-01-28T13:11:44.314Z,4.90
2023-01-28T13:14:16.405Z,5.30
2023-01-28T13:16:46.913Z,10.40
2023-01-28T13:19:37.498Z,7.80
2023-01-28T13:22:27.207Z,6.60
2023-01-28T13:24:57.694Z,6.30
2023-01-28T13:27:29.518Z,6.50
2023-01-28T13:30:23.647Z,4.40
2023-01-28T13:33:01.366Z,4.90
2023-01-28T13:35:40.303Z,4.40
2023-01-28T13:38:17.716Z,4.50
2023-01-28T13:40:57.555Z,4.10
2023-01-28T13:43:38.706Z,4.50
2023-01-28T13:46:12.053Z,3.70
2023-01-28T13:48:52.132Z,3.50
2023-01-28T13:51:24.975Z,3.60
2023-01-28T13:54:01.004Z,4.00
2023-01-28T13:56:40.470Z,4.10
2023-01-28T13:59:37.210Z,8.50
2023-01-28T14:02:37.962Z,5.50
2023-01-28T14:05:47.652Z,3.60
2023-01-28T14:08:45.126Z,3.50
2023-01-28T14:11:44.716Z,3.70
2023-01-28T14:14:46.389Z,3.70
2023-01-28T14:17:25.322Z,3.70
2023-01-28T14:19:58.581Z,3.30
2023-01-28T14:22:29.468Z,3.40
2023-01-28T14:25:03.680Z,3.60
2023-01-28T14:27:39.650Z,3.20
2023-01-28T14:30:21.942Z,4.20
2023-01-28T14:32:55.076Z,3.50
2023-01-28T14:35:31.589Z,3.70
2023-01-28T14:38:08.800Z,2.80
2023-01-28T14:40:41.080Z,3.90
2023-01-28T14:43:17.931Z,4.00
2023-01-28T14:46:05.522Z,3.00
2023-01-28T14:48:43.479Z,2.70
2023-01-28T14:51:43.735Z,2.80
2023-01-28T14:54:35.931Z,2.30
2023-01-28T14:57:22.032Z,2.40
2023-01-28T14:59:58.136Z,2.40
2023-01-28T15:02:30.415Z,2.90
2023-01-28T15:05:12.376Z,2.80
2023-01-28T15:07:47.095Z,2.90
2023-01-28T15:10:25.499Z,2.80
2023-01-28T15:12:59.728Z,2.60
2023-01-28T15:15:34.813Z,3.00
2023-01-28T15:18:12.485Z,2.60
2023-01-28T15:20:47.817Z,3.40
2023-01-28T15:23:22.955Z,3.30
2023-01-28T15:25:55.465Z,4.00
2023-01-28T15:28:31.071Z,3.00
2023-01-28T15:31:02.264Z,3.10
2023-01-28T15:33:32.838Z,3.90
2023-01-28T15:36:03.678Z,3.70
2023-01-28T15:38:34.170Z,4.30
2023-01-28T15:41:07.002Z,4.60
2023-01-28T15:43:39.468Z,4.30
2023-01-28T15:46:14.851Z,4.60
2023-01-28T15:48:47.786Z,4.40
2023-01-28T15:51:24.866Z,5.10
2023-01-28T15:54:00.019Z,4.80
2023-01-28T15:56:31.477Z,3.20
2023-01-28T15:59:18.170Z,4.10
2023-01-28T16:01:48.937Z,4.90
2023-01-28T16:04:30.395Z,3.90
2023-01-28T16:07:05.478Z,4.50
2023-01-28T16:09:37.580Z,4.50
2023-01-28T16:12:10.073Z,4.30
2023-01-28T16:14:46.325Z,5.30
2023-01-28T16:17:21.653Z,4.50
2023-01-28T16:19:57.363Z,5.00
2023-01-28T16:22:34.282Z,5.00
2023-01-28T16:25:24.537Z,5.00
2023-01-28T16:27:55.009Z,4.70
2023-01-28T16:30:26.290Z,5.10
2023-01-28T16:32:57.217Z,5.80
2023-01-28T16:35:47.142Z,5.10
2023-01-28T16:38:23.396Z,4.00
2023-01-28T16:40:53.895Z,5.50
2023-01-28T16:43:24.423Z,4.40
2023-01-28T16:45:54.859Z,5.50
2023-01-28T16:48:25.308Z,5.90
2023-01-28T16:50:55.760Z,5.00
2023-01-28T16:53:33.606Z,4.90
2023-01-28T16:56:06.128Z,5.00
2023-01-28T16:58:38.040Z,5.10
2023-01-28T17:01:09.062Z,4.10
2023-01-28T17:03:40.249Z,5.70
2023-01-28T17:06:15.079Z,4.90
2023-01-28T17:08:45.686Z,5.60
2023-01-28T17:11:16.486Z,4.20
2023-01-28T17:13:46.926Z,5.10
2023-01-28T17:16:17.471Z,4.70
2023-01-28T17:18:50.587Z,4.50
2023-01-28T17:21:21.598Z,4.80
2023-01-28T17:23:52.027Z,5.60
2023-01-28T17:26:22.469Z,4.40
2023-01-28T17:28:56.376Z,4.70
2023-01-28T17:31:27.510Z,5.70
2023-01-28T17:33:59.688Z,5.50
2023-01-28T17:36:30.576Z,4.70
2023-01-28T17:39:01.378Z,6.40
2023-01-28T17:41:31.897Z,5.50
2023-01-28T17:44:04.636Z,5.60
2023-01-28T17:46:35.189Z,4.70
2023-01-28T17:49:05.729Z,5.60
2023-01-28T17:51:36.270Z,6.00
2023-01-28T17:54:07.088Z,4.70
2023-01-28T17:56:38.354Z,5.40
2023-01-28T17:59:11.644Z,6.10
2023-01-28T18:01:42.078Z,5.60
2023-01-28T18:04:13.168Z,5.50
2023-01-28T18:06:44.869Z,5.00
2023-01-28T18:09:15.315Z,5.00
2023-01-28T18:11:47.682Z,6.40
2023-01-28T18:14:18.110Z,5.90
2023-01-28T18:16:48.635Z,6.80
2023-01-28T18:19:19.036Z,6.90
2023-01-28T18:21:53.616Z,6.70
2023-01-28T18:24:25.412Z,6.40
2023-01-28T18:26:58.297Z,6.00
2023-01-28T18:29:30.285Z,8.30
2023-01-28T18:32:01.035Z,7.50
2023-01-28T18:34:32.420Z,7.40
2023-01-28T18:37:06.675Z,6.60
